San Francisco, California
Current Conditions -  °F | °C
As of 3:56 PM on Friday 28 Nov 2014 (Local Time) from KSFO Reporting Station
Scattered Clouds Scattered Clouds  
Wind Chill: 61°   Ceiling: Unl
Heat Index: 61°   Visibility: 10mi
Dew Point: 52°   Wind: 7mph
Humidity: 72%   Direction: 220°SW
Pressure: 29.91"   Gusts: NA
Location:  37.78°N, 122.42°W
Report Text: KSFO 282356Z 22006KT 10SM FEW011 SCT160 16/11 A2991 RMK AO2 SLP127 T01610111 10172 20117 56014 $
Loading
Personal Weather Stations






























Interactive Weather Map New forecast layout! Learn more

10-Day Weather Forecast

Advertisements
Track Severe Weather on mobile